Airport ID:KTME
Update Time (UTC):22 AUG 17 18:39
Wind Speed (Knots):4
Wind Direction (Magnetic):080
Temperature (°C):34
Dew Point (°C):23
Humidity (%):53
Altimeter (inHg):30.06
Density Altitude (Feet):2200
Visibility (Miles):10
Clouds (Hundreds of feet):CLR
Present Weather:NO PRECIPITATION
METAR:METAR KTME 221835Z AUTO 00000KT 10SM CLR 33/22 A3006 RMK AO2

The data displayed is for advisory purposes only and is not to be used for flight planning or operations.

This page is not automatically refreshed. Reload the page to see current data.